Time;durP1;ratioP1;P1;durP2;ratioP2;P2;SDS_P1;SDS_P2;PMS_P1;PMS_P2;Temp;Humidity;BMP_temperature;BMP_pressure;BME280_temperature;BME280_humidity;BME280_pressure;Samples;Min_cycle;Max_cycle;Signal;HPM_P1;HPM_P2
2023/10/15 00:06:11;;;;;;;6.82;2.40;;;9.70;99.90;;;;;;5039062;28;19987;-67
2023/10/15 00:08:38;;;;;;;10.52;3.22;;;9.70;99.90;;;;;;5062483;28;20055;-62
2023/10/15 00:11:12;;;;;;;10.27;3.03;;;9.70;99.90;;;;;;5059475;28;20098;-62
2023/10/15 00:13:39;;;;;;;21.38;3.45;;;9.70;99.90;;;;;;5057138;28;20036;-68
2023/10/15 00:16:06;;;;;;;7.70;3.40;;;9.70;99.90;;;;;;5060394;28;20040;-64
2023/10/15 00:18:34;;;;;;;10.07;3.10;;;9.60;99.90;;;;;;5055750;28;20047;-63
2023/10/15 00:21:11;;;;;;;8.68;1.92;;;9.60;99.90;;;;;;5057663;28;20037;-63
2023/10/15 00:23:46;;;;;;;13.35;3.80;;;9.60;99.90;;;;;;5058012;28;20037;-64
2023/10/15 00:26:14;;;;;;;8.27;3.47;;;9.50;99.90;;;;;;5060545;28;20721;-63
2023/10/15 00:28:48;;;;;;;8.57;1.70;;;9.50;99.90;;;;;;5057641;28;20040;-64
2023/10/15 00:31:16;;;;;;;13.55;3.88;;;9.50;99.90;;;;;;5057441;28;20124;-64
2023/10/15 00:33:46;;;;;;;12.15;3.03;;;9.50;99.90;;;;;;5054391;28;20547;-63
2023/10/15 00:36:13;;;;;;;;;;;9.50;99.90;;;;;;5057313;28;20086;-64
2023/10/15 00:38:43;;;;;;;10.40;2.30;;;9.50;99.90;;;;;;5037388;28;19917;-66
2023/10/15 00:41:14;;;;;;;6.32;2.13;;;9.50;99.90;;;;;;5059274;28;20041;-62
2023/10/15 00:43:59;;;;;;;;;;;9.50;99.90;;;;;;5058746;28;20094;-62
2023/10/15 00:46:37;;;;;;;11.20;2.38;;;9.50;99.90;;;;;;5068816;28;20504;-62
2023/10/15 00:49:48;;;;;;;5.95;1.95;;;9.50;99.90;;;;;;5046204;28;20113;-63
2023/10/15 00:51:56;;;;;;;15.75;2.22;;;9.50;99.90;;;;;;5043491;28;20082;-64
2023/10/15 00:54:23;;;;;;;8.45;1.30;;;9.50;99.90;;;;;;5037469;28;20065;-65
2023/10/15 00:56:54;;;;;;;6.70;1.90;;;9.50;99.90;;;;;;5050883;28;20083;-62
2023/10/15 00:59:21;;;;;;;12.55;2.15;;;9.50;99.90;;;;;;5037045;28;20052;-62
2023/10/15 01:02:03;;;;;;;7.32;2.05;;;9.50;99.90;;;;;;5055523;28;20467;-65
2023/10/15 01:04:35;;;;;;;9.30;1.75;;;9.50;99.90;;;;;;5059639;28;20060;-62
2023/10/15 01:09:52;;;;;;;12.27;2.83;;;9.40;99.90;;;;;;5061182;28;20032;-62
2023/10/15 01:12:30;;;;;;;12.27;2.92;;;9.30;99.90;;;;;;5059382;28;20118;-61
2023/10/15 01:14:59;;;;;;;10.45;2.85;;;9.30;99.90;;;;;;5038119;28;20398;-61
2023/10/15 01:17:26;;;;;;;12.88;2.30;;;9.30;99.90;;;;;;5057551;28;20033;-62
2023/10/15 01:19:56;;;;;;;7.20;2.20;;;9.20;99.90;;;;;;5061044;28;20123;-64
2023/10/15 01:22:24;;;;;;;13.25;3.20;;;9.10;99.90;;;;;;5059079;28;20453;-61
2023/10/15 01:24:55;;;;;;;9.18;1.73;;;9.10;99.90;;;;;;5048780;28;20486;-65
2023/10/15 01:27:27;;;;;;;8.80;2.95;;;9.00;99.90;;;;;;5056564;28;20040;-63
2023/10/15 01:29:55;;;;;;;11.65;2.47;;;9.00;99.90;;;;;;5037144;28;20121;-65
2023/10/15 01:32:22;;;;;;;14.30;3.03;;;8.90;99.90;;;;;;5038511;28;20060;-62
2023/10/15 01:34:50;;;;;;;7.85;2.72;;;8.80;99.90;;;;;;5055070;28;20041;-63
2023/10/15 01:42:41;;;;;;;6.70;2.25;;;8.80;99.90;;;;;;5056193;28;20386;-65
2023/10/15 01:45:13;;;;;;;10.38;2.20;;;8.80;99.90;;;;;;5039923;28;20458;-63
2023/10/15 01:50:33;;;;;;;8.00;1.98;;;8.90;99.90;;;;;;5054139;28;20036;-62
2023/10/15 01:53:04;;;;;;;6.35;1.33;;;8.90;99.90;;;;;;5058171;28;20040;-62
2023/10/15 01:55:35;;;;;;;4.43;1.58;;;8.80;99.90;;;;;;5056293;28;20053;-62
2023/10/15 01:58:05;;;;;;;14.60;3.13;;;8.90;99.90;;;;;;5040591;28;20075;-62
2023/10/15 02:03:10;;;;;;;11.38;1.90;;;9.00;99.90;;;;;;5056605;28;20044;-63
2023/10/15 02:05:42;;;;;;;;;;;9.10;99.90;;;;;;5055286;28;20033;-61
2023/10/15 02:08:12;;;;;;;5.90;1.17;;;9.20;99.90;;;;;;5040841;28;19917;-62
2023/10/15 02:10:46;;;;;;;3.70;1.45;;;9.30;99.90;;;;;;5057196;28;20041;-61
2023/10/15 02:13:17;;;;;;;7.55;2.13;;;9.30;99.90;;;;;;5056038;28;20044;-62
2023/10/15 02:15:45;;;;;;;14.90;2.47;;;9.30;99.90;;;;;;5041724;28;20056;-64
2023/10/15 02:18:14;;;;;;;7.47;2.72;;;9.20;99.90;;;;;;5059521;28;20048;-61
2023/10/15 02:20:47;;;;;;;7.70;1.88;;;9.20;99.90;;;;;;5070320;28;20053;-63
2023/10/15 02:23:20;;;;;;;8.48;1.60;;;9.20;99.90;;;;;;5059051;28;20033;-68
2023/10/15 02:25:58;;;;;;;14.60;2.50;;;9.20;99.90;;;;;;5054183;28;20577;-62
2023/10/15 02:28:31;;;;;;;8.70;1.70;;;9.10;99.90;;;;;;5052629;28;20041;-62
2023/10/15 02:33:38;;;;;;;7.82;1.33;;;9.20;99.90;;;;;;5054963;28;21888;-65
2023/10/15 02:36:15;;;;;;;15.13;1.85;;;9.30;99.90;;;;;;5053708;28;20037;-63
2023/10/15 02:38:53;;;;;;;10.55;1.88;;;9.30;99.90;;;;;;5054684;28;20739;-62
2023/10/15 02:41:39;;;;;;;11.32;1.90;;;9.30;99.90;;;;;;5054549;28;20041;-63
2023/10/15 02:44:12;;;;;;;9.82;2.67;;;9.40;99.90;;;;;;5039039;28;20114;-63
2023/10/15 02:46:49;;;;;;;4.50;1.25;;;9.40;99.90;;;;;;5056095;28;20041;-63
2023/10/15 02:49:17;;;;;;;10.25;2.10;;;9.40;99.90;;;;;;5054248;28;20072;-62
2023/10/15 02:51:48;;;;;;;5.43;2.17;;;9.50;99.90;;;;;;5057273;28;20082;-65
2023/10/15 02:54:18;;;;;;;4.82;1.52;;;9.50;99.90;;;;;;5055291;28;20037;-62
2023/10/15 02:56:46;;;;;;;6.35;2.55;;;9.50;99.90;;;;;;5064855;28;20044;-62
2023/10/15 02:59:16;;;;;;;9.55;2.60;;;9.50;99.90;;;;;;5061332;28;20527;-62
2023/10/15 03:01:46;;;;;;;11.18;1.65;;;9.50;99.90;;;;;;5060129;28;20481;-64
2023/10/15 03:04:17;;;;;;;11.70;4.32;;;9.50;99.90;;;;;;5074622;28;20036;-63
2023/10/15 03:06:48;;;;;;;9.57;2.25;;;9.50;99.90;;;;;;5059726;28;20052;-63
2023/10/15 03:09:18;;;;;;;11.57;3.65;;;9.50;99.90;;;;;;5043055;28;20044;-63
2023/10/15 03:11:51;;;;;;;9.98;2.60;;;9.50;99.90;;;;;;5065058;28;20037;-63
2023/10/15 03:14:21;;;;;;;9.50;1.70;;;9.50;99.90;;;;;;5058134;28;20071;-62
2023/10/15 03:16:49;;;;;;;10.15;2.63;;;9.50;99.90;;;;;;5061296;28;20033;-62
2023/10/15 03:19:22;;;;;;;11.77;1.52;;;9.50;99.90;;;;;;5057993;28;20445;-63
2023/10/15 03:21:56;;;;;;;6.55;1.30;;;9.50;99.90;;;;;;5058614;28;20033;-63
2023/10/15 03:24:23;;;;;;;11.02;2.20;;;9.50;99.90;;;;;;5059521;28;20107;-62
2023/10/15 03:26:50;;;;;;;9.18;3.03;;;9.50;99.90;;;;;;5057922;28;20095;-62
2023/10/15 03:29:21;;;;;;;11.63;2.50;;;9.50;99.90;;;;;;5058268;28;20041;-64
2023/10/15 03:31:54;;;;;;;6.70;1.85;;;9.50;99.90;;;;;;5061439;28;20064;-64
2023/10/15 03:34:22;;;;;;;9.48;1.77;;;9.50;99.90;;;;;;5039841;28;20060;-62
2023/10/15 03:36:51;;;;;;;8.60;2.50;;;9.50;99.90;;;;;;5059780;28;20037;-61
2023/10/15 03:41:54;;;;;;;5.60;2.03;;;9.50;99.90;;;;;;5057001;28;20044;-62
2023/10/15 03:44:27;;;;;;;9.27;2.90;;;9.50;99.90;;;;;;5057303;28;20044;-63
2023/10/15 03:47:03;;;;;;;5.72;1.80;;;9.50;99.90;;;;;;5059946;28;20033;-63
2023/10/15 03:49:33;;;;;;;9.02;1.77;;;9.50;99.90;;;;;;5059238;28;20040;-61
2023/10/15 03:52:07;;;;;;;11.00;2.95;;;9.50;99.90;;;;;;5060897;28;20048;-62
2023/10/15 03:54:37;;;;;;;12.82;2.67;;;9.50;99.90;;;;;;5056696;28;20037;-62
2023/10/15 03:57:06;;;;;;;10.40;2.75;;;9.40;99.90;;;;;;5058388;28;20571;-63
2023/10/15 03:59:44;;;;;;;13.07;2.42;;;9.50;99.90;;;;;;5058328;28;20510;-64
2023/10/15 04:02:22;;;;;;;10.60;1.88;;;9.50;99.90;;;;;;5059500;28;20063;-62
2023/10/15 04:07:55;;;;;;;11.57;3.33;;;9.50;99.90;;;;;;5054919;28;20063;-62
2023/10/15 04:10:33;;;;;;;5.25;2.35;;;9.40;99.90;;;;;;5059470;28;20036;-62
2023/10/15 04:13:01;;;;;;;14.60;2.42;;;9.50;99.90;;;;;;5061121;28;20047;-64
2023/10/15 04:15:30;;;;;;;12.80;2.83;;;9.40;99.90;;;;;;5057761;28;20078;-65
2023/10/15 04:17:58;;;;;;;15.88;2.95;;;9.40;99.90;;;;;;5059320;28;20141;-62
2023/10/15 04:20:35;;;;;;;9.07;2.75;;;9.40;99.90;;;;;;5058420;28;20102;-62
2023/10/15 04:23:03;;;;;;;9.25;2.38;;;9.40;99.90;;;;;;5052647;28;20040;-63
2023/10/15 04:25:33;;;;;;;11.30;3.53;;;9.40;99.90;;;;;;5058025;28;20041;-63
2023/10/15 04:28:18;;;;;;;6.45;1.80;;;9.40;99.90;;;;;;5057736;28;20120;-64
2023/10/15 04:30:46;;;;;;;7.93;2.90;;;9.40;99.90;;;;;;5052815;28;20041;-67
2023/10/15 04:33:18;;;;;;;9.25;3.28;;;9.40;99.90;;;;;;5062082;28;20063;-65
2023/10/15 04:35:48;;;;;;;6.10;2.53;;;9.40;99.90;;;;;;5055293;28;20084;-63
2023/10/15 04:38:21;;;;;;;10.93;1.73;;;9.40;99.90;;;;;;5060407;28;20041;-62
2023/10/15 04:43:25;;;;;;;5.93;1.80;;;9.40;99.90;;;;;;5054078;28;20090;-62
2023/10/15 04:45:56;;;;;;;9.82;1.80;;;9.40;99.90;;;;;;5060129;28;20079;-63
2023/10/15 04:48:27;;;;;;;13.63;2.20;;;9.40;99.90;;;;;;5054869;28;20060;-62
2023/10/15 04:50:56;;;;;;;4.65;1.52;;;9.30;99.90;;;;;;5057726;28;20065;-61
2023/10/15 04:53:30;;;;;;;9.18;2.03;;;9.40;99.90;;;;;;5056565;28;20049;-62
2023/10/15 04:56:00;;;;;;;15.60;2.60;;;9.40;99.90;;;;;;5060080;28;20114;-61
2023/10/15 04:58:27;;;;;;;;;;;9.40;99.90;;;;;;5057889;28;20040;-64
2023/10/15 05:00:57;;;;;;;14.15;3.90;;;9.30;99.90;;;;;;5061426;28;21211;-62
2023/10/15 05:03:25;;;;;;;6.20;2.40;;;9.40;99.90;;;;;;5054910;28;20124;-62
2023/10/15 05:05:53;;;;;;;6.22;1.70;;;9.30;99.90;;;;;;5060379;28;20119;-62
2023/10/15 05:08:24;;;;;;;15.57;3.53;;;9.40;99.90;;;;;;5060667;28;20110;-63
2023/10/15 05:10:51;;;;;;;12.82;3.83;;;9.40;99.90;;;;;;5059468;28;20083;-62
2023/10/15 05:13:19;;;;;;;10.70;2.50;;;9.40;99.90;;;;;;5062279;28;20040;-62
2023/10/15 05:15:47;;;;;;;11.25;2.42;;;9.40;99.90;;;;;;5041105;28;20048;-64
2023/10/15 05:18:15;;;;;;;6.00;2.40;;;9.40;99.90;;;;;;5057172;28;20648;-62
2023/10/15 05:20:50;;;;;;;5.65;2.60;;;9.40;99.90;;;;;;5056582;28;20044;-63
2023/10/15 05:23:19;;;;;;;8.27;2.10;;;9.30;99.90;;;;;;5055600;28;20055;-63
2023/10/15 05:25:49;;;;;;;9.98;2.63;;;9.40;99.90;;;;;;5053456;28;20382;-62
2023/10/15 05:28:17;;;;;;;8.13;1.90;;;9.40;99.90;;;;;;5057113;28;20554;-63
2023/10/15 05:30:44;;;;;;;10.70;2.53;;;9.50;99.90;;;;;;5060024;28;20064;-63
2023/10/15 05:33:11;;;;;;;11.93;1.92;;;9.50;99.90;;;;;;5053448;28;20037;-63
2023/10/15 05:35:42;;;;;;;6.53;2.03;;;9.50;99.90;;;;;;5054652;28;20049;-64
2023/10/15 05:38:09;;;;;;;5.85;1.55;;;9.50;99.90;;;;;;5055065;28;20033;-65
2023/10/15 05:40:38;;;;;;;9.05;2.92;;;9.50;99.90;;;;;;5057219;28;20040;-63
2023/10/15 05:43:05;;;;;;;8.20;2.83;;;9.50;99.90;;;;;;5054224;28;20071;-63
2023/10/15 05:45:32;;;;;;;8.43;1.42;;;9.50;99.90;;;;;;5056083;28;20083;-62
2023/10/15 05:48:00;;;;;;;5.82;1.60;;;9.50;99.90;;;;;;5052995;28;20044;-63
2023/10/15 05:50:28;;;;;;;5.03;1.58;;;9.50;99.90;;;;;;5060222;28;20047;-63
2023/10/15 05:52:55;;;;;;;3.70;1.77;;;9.60;99.90;;;;;;5056877;28;20052;-62
2023/10/15 05:55:22;;;;;;;9.23;1.58;;;9.60;99.90;;;;;;5055065;28;20125;-61
2023/10/15 05:57:49;;;;;;;9.60;1.55;;;9.60;99.90;;;;;;5056417;28;20040;-61
2023/10/15 06:00:19;;;;;;;6.22;1.30;;;9.60;99.90;;;;;;5059057;28;20119;-63
2023/10/15 06:02:47;;;;;;;;;;;9.60;99.90;;;;;;5055508;28;20033;-65
2023/10/15 06:05:14;;;;;;;8.15;1.25;;;9.70;99.90;;;;;;5052707;28;19916;-62
2023/10/15 06:07:45;;;;;;;5.47;1.33;;;9.70;99.90;;;;;;5053445;28;20048;-64
2023/10/15 06:10:12;;;;;;;11.95;1.50;;;9.60;99.90;;;;;;5056278;28;20037;-64
2023/10/15 06:12:40;;;;;;;7.68;1.20;;;9.70;99.90;;;;;;5057305;28;20083;-65
2023/10/15 06:15:12;;;;;;;8.10;1.65;;;9.70;99.90;;;;;;5055707;28;20395;-61
2023/10/15 06:17:45;;;;;;;7.80;2.17;;;9.70;99.90;;;;;;5056859;28;20025;-61
2023/10/15 06:20:14;;;;;;;4.03;1.23;;;9.70;99.90;;;;;;5062149;28;20075;-64
2023/10/15 06:22:46;;;;;;;4.25;1.83;;;9.70;99.90;;;;;;5050207;28;20040;-62
2023/10/15 06:25:17;;;;;;;6.40;1.38;;;9.70;99.90;;;;;;5056985;28;20548;-63
2023/10/15 06:27:45;;;;;;;5.95;1.80;;;9.70;99.90;;;;;;5059546;28;20033;-64
2023/10/15 06:30:16;;;;;;;5.57;1.15;;;9.80;99.90;;;;;;5057356;28;20119;-65
2023/10/15 06:32:50;;;;;;;4.50;1.65;;;9.80;99.90;;;;;;5066702;28;20032;-63
2023/10/15 06:35:18;;;;;;;3.75;1.10;;;9.80;99.90;;;;;;5040354;28;20536;-62
2023/10/15 06:37:46;;;;;;;6.18;2.40;;;9.80;99.90;;;;;;5057498;28;20140;-65
2023/10/15 06:40:15;;;;;;;4.05;1.05;;;9.90;99.90;;;;;;5060576;28;20097;-65
2023/10/15 06:42:59;;;;;;;4.03;1.40;;;9.90;99.90;;;;;;5061238;28;20425;-63
2023/10/15 06:45:28;;;;;;;3.50;1.60;;;9.90;99.90;;;;;;5058470;28;20040;-62
2023/10/15 06:47:55;;;;;;;7.60;2.00;;;9.90;99.90;;;;;;5060883;28;20037;-63
2023/10/15 06:50:22;;;;;;;4.15;1.13;;;9.90;99.90;;;;;;5065691;28;20072;-62
2023/10/15 06:52:52;;;;;;;5.75;1.20;;;10.00;99.90;;;;;;5059018;28;20554;-63
2023/10/15 06:55:20;;;;;;;6.35;0.98;;;10.00;99.90;;;;;;5060851;28;21103;-62
2023/10/15 06:57:49;;;;;;;4.80;1.25;;;10.00;99.90;;;;;;5060369;28;20040;-63
2023/10/15 07:00:23;;;;;;;7.05;1.08;;;10.10;99.90;;;;;;5058936;28;20033;-63
2023/10/15 07:02:52;;;;;;;4.60;1.38;;;10.10;99.90;;;;;;5059768;28;20047;-63
2023/10/15 07:05:23;;;;;;;3.28;1.10;;;10.00;99.90;;;;;;5056713;28;20128;-62
2023/10/15 07:07:53;;;;;;;4.70;1.98;;;10.00;99.90;;;;;;5060704;28;20130;-62
2023/10/15 07:10:21;;;;;;;6.03;1.35;;;10.00;99.90;;;;;;5062086;28;20083;-63
2023/10/15 07:12:52;;;;;;;5.05;1.15;;;10.10;99.90;;;;;;5054032;28;20450;-63
2023/10/15 07:15:23;;;;;;;5.80;1.38;;;10.10;99.90;;;;;;5060991;28;20037;-63
2023/10/15 07:17:51;;;;;;;10.38;1.10;;;10.10;99.90;;;;;;5056056;28;20114;-62
2023/10/15 07:20:20;;;;;;;1.08;0.70;;;10.20;99.90;;;;;;5061662;28;20076;-62
2023/10/15 07:22:49;;;;;;;6.13;1.42;;;10.20;99.90;;;;;;5055999;28;20047;-63
2023/10/15 07:25:21;;;;;;;3.47;0.70;;;10.10;99.90;;;;;;5062538;28;20040;-64
2023/10/15 07:27:49;;;;;;;3.13;0.90;;;10.10;99.90;;;;;;5055873;28;20529;-62
2023/10/15 07:30:19;;;;;;;4.38;1.85;;;10.10;99.90;;;;;;5056981;28;20060;-63
2023/10/15 07:32:48;;;;;;;2.83;0.52;;;10.10;99.90;;;;;;5058798;28;20087;-62
2023/10/15 07:35:15;;;;;;;1.67;0.85;;;10.10;99.90;;;;;;5057545;28;20155;-66
2023/10/15 07:37:49;;;;;;;1.85;0.52;;;10.10;99.90;;;;;;5062047;28;20033;-62
2023/10/15 07:40:25;;;;;;;2.50;0.60;;;10.10;99.90;;;;;;5060076;28;20554;-63
2023/10/15 07:42:59;;;;;;;7.22;1.20;;;10.10;99.90;;;;;;5063427;28;20140;-63
2023/10/15 07:45:29;;;;;;;2.78;0.70;;;10.10;99.90;;;;;;5054745;28;20506;-64
2023/10/15 07:47:59;;;;;;;3.15;0.20;;;10.20;99.90;;;;;;5059224;28;20045;-61
2023/10/15 07:50:27;;;;;;;;;;;10.20;99.90;;;;;;5060710;28;20037;-61
2023/10/15 07:52:54;;;;;;;3.00;0.90;;;10.20;99.90;;;;;;5058779;28;19917;-62
2023/10/15 07:55:26;;;;;;;1.95;0.40;;;10.20;99.90;;;;;;5064359;28;20045;-61
2023/10/15 07:57:53;;;;;;;1.23;0.50;;;10.20;99.90;;;;;;5057415;28;20707;-62
2023/10/15 08:00:23;;;;;;;1.27;1.05;;;10.20;99.90;;;;;;5057226;28;20119;-61
2023/10/15 08:02:52;;;;;;;2.45;0.65;;;10.20;99.90;;;;;;5057887;28;20037;-61
2023/10/15 08:05:22;;;;;;;1.02;0.30;;;10.20;99.90;;;;;;5056955;28;20069;-64
2023/10/15 08:07:51;;;;;;;0.80;0.30;;;10.20;99.90;;;;;;5061925;28;20492;-61
2023/10/15 08:10:20;;;;;;;1.75;0.25;;;10.20;99.90;;;;;;5061791;28;20048;-62
2023/10/15 08:12:51;;;;;;;0.77;0.40;;;10.20;99.90;;;;;;5057330;28;20068;-62
2023/10/15 08:15:18;;;;;;;1.00;0.60;;;10.20;99.90;;;;;;5055769;28;20097;-64
2023/10/15 08:17:46;;;;;;;2.20;0.50;;;10.20;99.90;;;;;;5055920;28;20070;-63
2023/10/15 08:20:13;;;;;;;6.30;0.60;;;10.10;99.90;;;;;;5062009;28;20064;-63
2023/10/15 08:22:41;;;;;;;1.10;0.30;;;10.10;99.90;;;;;;5060693;28;20071;-64
2023/10/15 08:25:19;;;;;;;1.67;0.40;;;10.10;99.90;;;;;;5061153;28;20047;-61
2023/10/15 08:27:45;;;;;;;3.40;0.70;;;10.10;99.90;;;;;;5061976;28;20484;-63
2023/10/15 08:30:13;;;;;;;5.25;0.45;;;10.10;99.90;;;;;;5058980;28;20433;-65
2023/10/15 08:32:41;;;;;;;7.18;1.10;;;10.10;99.90;;;;;;5062870;28;20417;-65
2023/10/15 08:35:13;;;;;;;3.22;1.25;;;10.20;99.90;;;;;;5056536;28;20098;-62
2023/10/15 08:37:45;;;;;;;0.57;0.20;;;10.10;99.90;;;;;;5057840;28;20033;-61
2023/10/15 08:40:17;;;;;;;0.57;0.30;;;10.10;99.90;;;;;;5057026;28;20115;-65
2023/10/15 08:42:50;;;;;;;0.47;0.22;;;10.10;99.90;;;;;;5040679;28;20040;-63
2023/10/15 08:45:22;;;;;;;1.77;1.23;;;10.10;99.90;;;;;;5060632;28;20059;-64
2023/10/15 08:47:50;;;;;;;1.48;0.93;;;10.10;99.90;;;;;;5047766;28;20037;-61
2023/10/15 08:50:20;;;;;;;0.75;0.40;;;10.10;99.90;;;;;;5052295;28;20683;-63
2023/10/15 08:52:52;;;;;;;1.60;0.40;;;10.10;99.90;;;;;;5055603;28;20498;-62
2023/10/15 08:55:22;;;;;;;1.73;0.20;;;10.10;99.90;;;;;;5060650;28;20059;-63
2023/10/15 08:57:56;;;;;;;1.25;0.10;;;10.10;99.90;;;;;;5056447;28;20029;-61
2023/10/15 09:00:30;;;;;;;4.88;0.30;;;10.10;99.90;;;;;;5055625;28;20486;-64
2023/10/15 09:03:00;;;;;;;0.30;0.15;;;10.10;99.90;;;;;;5058834;28;20816;-63
2023/10/15 09:05:30;;;;;;;0.28;0.20;;;10.20;99.90;;;;;;5054151;28;20601;-61
2023/10/15 09:08:06;;;;;;;0.45;0.17;;;10.20;99.90;;;;;;5055929;28;20041;-62
2023/10/15 09:10:41;;;;;;;0.60;0.20;;;10.20;99.90;;;;;;5058245;28;20125;-63
2023/10/15 09:13:15;;;;;;;0.47;0.40;;;10.20;99.90;;;;;;5052311;28;20487;-62
2023/10/15 09:15:48;;;;;;;2.25;1.02;;;10.30;99.90;;;;;;5053665;28;20060;-63
2023/10/15 09:18:16;;;;;;;1.73;0.73;;;10.30;99.90;;;;;;5054117;28;20029;-64
2023/10/15 09:20:46;;;;;;;0.30;0.10;;;10.30;99.90;;;;;;5056233;28;20053;-63
2023/10/15 09:23:15;;;;;;;0.65;0.20;;;10.20;99.90;;;;;;5053886;28;20039;-65
2023/10/15 09:25:42;;;;;;;0.30;0.30;;;10.10;99.90;;;;;;5056201;28;20063;-62
2023/10/15 09:28:09;;;;;;;3.05;0.40;;;10.00;99.90;;;;;;5053627;28;20051;-61
2023/10/15 09:30:36;;;;;;;0.90;0.30;;;10.10;99.90;;;;;;5057131;28;20090;-63
2023/10/15 09:33:12;;;;;;;0.63;0.22;;;10.00;99.90;;;;;;5056356;28;20048;-69
2023/10/15 09:35:41;;;;;;;2.05;0.50;;;10.10;99.90;;;;;;5054959;28;20040;-64
2023/10/15 09:38:17;;;;;;;1.45;0.25;;;10.20;99.90;;;;;;5053121;28;20459;-64
2023/10/15 09:40:44;;;;;;;2.17;0.63;;;10.20;99.90;;;;;;5056288;28;20042;-63
2023/10/15 09:43:13;;;;;;;0.38;0.10;;;10.30;99.90;;;;;;5055837;28;20094;-62
2023/10/15 09:45:41;;;;;;;1.08;0.73;;;10.30;99.90;;;;;;5057642;28;20460;-63
2023/10/15 09:48:12;;;;;;;0.30;0.25;;;10.40;99.90;;;;;;5056445;28;20029;-62
2023/10/15 09:50:41;;;;;;;;;;;10.50;99.90;;;;;;5042016;28;20080;-62
2023/10/15 09:53:09;;;;;;;0.30;0.10;;;10.50;99.90;;;;;;5053891;28;19925;-62
2023/10/15 09:55:38;;;;;;;0.20;0.10;;;10.50;99.90;;;;;;5055979;28;20033;-62
2023/10/15 09:58:05;;;;;;;0.10;0.10;;;10.50;99.90;;;;;;5056963;28;20036;-64
2023/10/15 10:03:38;;;;;;;0.20;0.20;;;10.60;99.90;;;;;;5058639;28;20492;-63
2023/10/15 10:06:33;;;;;;;2.28;0.20;;;10.60;99.90;;;;;;5065122;28;20441;-67
2023/10/15 10:09:38;;;;;;;2.50;0.30;;;10.60;99.90;;;;;;5057560;28;20029;-63
2023/10/15 10:12:05;;;;;;;2.55;0.30;;;10.60;99.90;;;;;;5062410;28;20032;-66
2023/10/15 10:15:10;;;;;;;1.75;0.28;;;10.60;99.90;;;;;;5059640;28;20103;-63
2023/10/15 10:17:38;;;;;;;1.10;0.60;;;10.60;99.90;;;;;;5061298;28;20032;-63
2023/10/15 10:20:11;;;;;;;0.60;0.30;;;10.50;99.90;;;;;;5059560;28;20716;-63
2023/10/15 10:22:39;;;;;;;3.08;0.40;;;10.50;99.90;;;;;;5060408;28;20048;-63
2023/10/15 10:25:29;;;;;;;0.63;0.57;;;10.60;99.90;;;;;;5057149;28;20041;-62
2023/10/15 10:28:16;;;;;;;0.95;0.40;;;10.60;99.90;;;;;;5057496;28;20033;-62
2023/10/15 10:30:55;;;;;;;1.20;0.40;;;10.70;99.90;;;;;;5064713;28;20123;-63
2023/10/15 10:33:41;;;;;;;1.05;0.10;;;10.70;99.90;;;;;;5058754;28;20040;-62
2023/10/15 10:36:14;;;;;;;1.05;0.25;;;10.60;99.90;;;;;;5059236;28;20052;-61
2023/10/15 10:38:42;;;;;;;1.45;0.10;;;10.60;99.90;;;;;;5060520;28;20067;-63
2023/10/15 10:41:14;;;;;;;1.73;0.22;;;10.60;99.90;;;;;;5057732;28;20059;-62
2023/10/15 10:43:53;;;;;;;0.65;0.30;;;10.60;99.90;;;;;;5059641;28;20040;-62
2023/10/15 10:46:42;;;;;;;0.40;0.20;;;10.50;99.90;;;;;;5065108;28;20093;-64
2023/10/15 10:49:18;;;;;;;0.80;0.10;;;10.50;99.90;;;;;;5065500;28;20039;-62
2023/10/15 10:52:06;;;;;;;1.00;0.20;;;10.50;99.90;;;;;;5059120;28;20040;-62
2023/10/15 10:54:36;;;;;;;0.52;0.10;;;10.50;99.90;;;;;;5060414;28;20068;-62
2023/10/15 10:57:07;;;;;;;0.73;0.20;;;10.50;99.90;;;;;;5057036;28;20045;-61
2023/10/15 10:59:35;;;;;;;1.88;0.30;;;10.40;99.90;;;;;;5045180;28;20375;-61
2023/10/15 11:02:04;;;;;;;2.60;0.90;;;10.40;99.90;;;;;;5058639;28;20044;-62
2023/10/15 11:04:32;;;;;;;0.32;0.32;;;10.40;99.90;;;;;;5059493;28;20114;-62
2023/10/15 11:06:58;;;;;;;2.63;0.30;;;10.50;99.90;;;;;;5061689;28;20103;-62
2023/10/15 11:09:25;;;;;;;0.80;0.20;;;10.40;99.90;;;;;;5060543;28;20032;-63
2023/10/15 11:11:53;;;;;;;0.90;0.20;;;10.50;99.90;;;;;;5061647;28;20078;-62
2023/10/15 11:14:25;;;;;;;0.88;0.10;;;10.40;99.90;;;;;;5056389;28;20044;-63
2023/10/15 11:16:54;;;;;;;0.65;0.40;;;10.50;99.90;;;;;;5059196;28;20033;-62
2023/10/15 11:19:30;;;;;;;0.73;0.15;;;10.40;99.90;;;;;;5056200;28;20040;-63
2023/10/15 11:21:57;;;;;;;2.90;0.35;;;10.40;99.90;;;;;;5059304;28;20048;-63
2023/10/15 11:24:26;;;;;;;0.25;0.22;;;10.40;99.90;;;;;;5059608;28;20075;-62
2023/10/15 11:26:54;;;;;;;0.80;0.13;;;10.40;99.90;;;;;;5063212;28;20051;-62
2023/10/15 11:29:23;;;;;;;0.08;0.08;;;10.30;99.90;;;;;;5035000;28;20048;-61
2023/10/15 11:31:53;;;;;;;0.25;0.10;;;10.40;99.90;;;;;;5061634;28;20078;-62
2023/10/15 11:34:22;;;;;;;0.57;0.20;;;10.30;99.90;;;;;;5056790;28;20372;-63
2023/10/15 11:36:51;;;;;;;1.23;0.20;;;10.30;99.90;;;;;;5057472;28;20095;-63
2023/10/15 11:39:25;;;;;;;0.68;0.40;;;10.30;99.90;;;;;;5062025;28;20051;-63
2023/10/15 11:41:55;;;;;;;2.15;0.25;;;10.40;99.90;;;;;;5057377;28;20035;-64
2023/10/15 11:44:30;;;;;;;1.10;0.20;;;10.30;99.90;;;;;;5058162;28;20047;-63
2023/10/15 11:47:08;;;;;;;0.10;0.10;;;10.30;99.90;;;;;;5057968;28;20045;-62
2023/10/15 11:49:42;;;;;;;4.15;0.30;;;10.20;99.90;;;;;;5056902;28;20025;-62
2023/10/15 11:52:14;;;;;;;2.03;0.20;;;10.10;99.90;;;;;;5054885;28;20062;-62
2023/10/15 11:54:51;;;;;;;1.88;0.50;;;10.00;99.90;;;;;;5056397;28;20041;-64
2023/10/15 11:57:23;;;;;;;0.95;0.20;;;9.90;99.90;;;;;;5054643;28;20514;-63
2023/10/15 11:59:52;;;;;;;0.88;0.68;;;10.00;99.90;;;;;;5056113;28;20120;-61
2023/10/15 12:02:27;;;;;;;3.53;0.38;;;10.00;99.90;;;;;;5060006;28;20044;-63
2023/10/15 12:05:00;;;;;;;2.95;1.15;;;10.00;99.90;;;;;;5060358;28;20090;-64
2023/10/15 12:07:28;;;;;;;1.00;0.20;;;10.00;99.90;;;;;;5058685;28;20960;-64
2023/10/15 12:09:56;;;;;;;1.45;0.30;;;10.10;99.90;;;;;;5053679;28;20035;-63
2023/10/15 12:12:23;;;;;;;0.85;0.60;;;10.10;99.90;;;;;;5039065;28;20037;-63
2023/10/15 12:14:49;;;;;;;1.95;0.30;;;10.20;99.90;;;;;;5055160;28;20718;-61
2023/10/15 12:17:17;;;;;;;0.30;0.10;;;10.20;99.90;;;;;;5058657;28;20055;-63
2023/10/15 12:19:44;;;;;;;2.45;0.20;;;10.30;99.90;;;;;;5037367;28;20032;-62
2023/10/15 12:22:15;;;;;;;0.60;0.20;;;10.40;99.90;;;;;;5054685;28;20603;-65
2023/10/15 12:24:43;;;;;;;0.57;0.30;;;10.40;99.90;;;;;;5060738;28;20413;-63
2023/10/15 12:27:11;;;;;;;0.65;0.63;;;10.40;99.90;;;;;;5057668;28;20064;-64
2023/10/15 12:29:38;;;;;;;1.02;0.20;;;10.40;99.90;;;;;;5057022;28;20091;-63
2023/10/15 12:32:10;;;;;;;0.95;0.50;;;10.30;99.90;;;;;;5058021;28;20040;-62
2023/10/15 12:34:37;;;;;;;1.95;0.52;;;10.30;99.90;;;;;;5054504;28;20041;-63
2023/10/15 12:37:07;;;;;;;0.10;0.10;;;10.30;99.90;;;;;;5055943;28;20043;-62
2023/10/15 12:39:40;;;;;;;2.13;0.20;;;10.30;99.90;;;;;;5062190;28;20150;-62
2023/10/15 12:42:16;;;;;;;0.80;0.40;;;10.30;99.90;;;;;;5056247;28;20045;-63
2023/10/15 12:44:44;;;;;;;0.40;0.20;;;10.20;99.90;;;;;;5055787;28;20049;-62
2023/10/15 12:47:12;;;;;;;1.85;0.25;;;10.20;99.90;;;;;;5055832;28;20037;-66
2023/10/15 12:49:42;;;;;;;0.20;0.17;;;10.20;99.90;;;;;;5056011;28;20048;-63
2023/10/15 12:52:09;;;;;;;2.30;1.30;;;10.10;99.90;;;;;;5060147;28;20095;-63
2023/10/15 12:54:36;;;;;;;6.43;3.35;;;10.10;99.90;;;;;;5054218;28;20803;-62
2023/10/15 12:57:04;;;;;;;2.10;1.92;;;10.20;99.90;;;;;;5055716;28;20068;-62
2023/10/15 12:59:31;;;;;;;1.25;0.70;;;10.20;99.90;;;;;;5056318;28;20354;-62
2023/10/15 13:02:03;;;;;;;1.30;0.43;;;10.30;99.90;;;;;;5056441;28;20028;-63
2023/10/15 13:04:30;;;;;;;2.00;0.60;;;10.40;99.90;;;;;;5056742;28;20032;-62
2023/10/15 13:06:57;;;;;;;0.30;0.20;;;10.50;99.90;;;;;;5060683;28;20505;-65
2023/10/15 13:09:32;;;;;;;1.70;0.47;;;10.50;99.90;;;;;;5056506;28;20041;-63
2023/10/15 13:12:01;;;;;;;0.35;0.35;;;10.60;99.90;;;;;;5054837;28;20124;-62
2023/10/15 13:14:28;;;;;;;1.27;0.40;;;10.70;99.90;;;;;;5052770;28;20041;-62
2023/10/15 13:16:56;;;;;;;0.75;0.55;;;10.60;99.90;;;;;;5055318;28;20063;-63
2023/10/15 13:19:24;;;;;;;2.28;0.30;;;10.60;99.90;;;;;;5055791;28;20160;-64
2023/10/15 13:21:51;;;;;;;1.70;0.98;;;10.60;99.90;;;;;;5056103;28;20123;-62
2023/10/15 13:24:18;;;;;;;0.57;0.15;;;10.70;99.90;;;;;;5058700;28;20067;-62
2023/10/15 13:26:48;;;;;;;2.42;0.52;;;10.60;99.90;;;;;;5060036;28;20471;-63
2023/10/15 13:29:15;;;;;;;0.10;0.10;;;10.60;99.90;;;;;;5055676;28;20045;-64
2023/10/15 13:31:42;;;;;;;0.93;0.25;;;10.60;99.90;;;;;;5060635;28;20119;-62
2023/10/15 13:34:09;;;;;;;8.27;0.47;;;10.60;99.90;;;;;;5053218;28;20529;-63
2023/10/15 13:36:37;;;;;;;0.40;0.20;;;10.70;99.90;;;;;;5055970;28;20036;-62
2023/10/15 13:39:05;;;;;;;1.20;0.63;;;10.60;99.90;;;;;;5056429;28;20044;-65
2023/10/15 13:41:34;;;;;;;0.80;0.30;;;10.70;99.90;;;;;;5056618;28;20098;-63
2023/10/15 13:44:01;;;;;;;1.15;0.77;;;10.70;99.90;;;;;;5053293;28;20120;-69